Bookmark and Share
Track history (hours):
 

Vanquish

Last reported at 2014-Apr-16 20:23 UTC. Time now 2014-Apr-17 03:53 UTC.
Position N 51°23' W 003°14'.

MMSI: 246138952.

NotesDate/timePositionNaut miles runAvg speedWind from/ knotsBaromVisibWave heightAir tempDewpointWater temp
2014-Apr-16 20:23N 51°23' W 003°14'1012.4
2014-Apr-16 19:34N 51°26' W 002°59'1110.5
2014-Apr-16 18:34N 51°30' W 002°43'0 0.5
2014-Apr-16 17:33N 51°30' W 002°42'0 0.0
2014-Apr-16 16:33N 51°30' W 002°42'0 0.0
2014-Apr-16 15:33N 51°30' W 002°42'0 0.0
2014-Apr-16 14:33N 51°30' W 002°42'0 0.0
2014-Apr-16 13:33N 51°30' W 002°42'0 0.0
2014-Apr-16 12:33N 51°30' W 002°42'0 0.0
2014-Apr-16 11:33N 51°30' W 002°42'0 0.0
2014-Apr-16 10:33N 51°30' W 002°42'0 0.0
2014-Apr-16 09:33N 51°30' W 002°42'0 0.0
2014-Apr-16 08:33N 51°30' W 002°42'0 0.0
2014-Apr-16 07:33N 51°30' W 002°42'0 0.0
2014-Apr-16 06:33N 51°30' W 002°42'0 0.0
2014-Apr-16 05:33N 51°30' W 002°42'0 0.0
2014-Apr-16 04:33N 51°30' W 002°42'0 0.0
2014-Apr-16 03:33N 51°30' W 002°42'0 0.0
2014-Apr-16 02:33N 51°30' W 002°42'0 0.0
2014-Apr-16 01:33N 51°30' W 002°42'0 0.0
2014-Apr-16 00:33N 51°30' W 002°42'0 0.0
2014-Apr-15 23:33N 51°30' W 002°42'0 0.0
2014-Apr-15 22:33N 51°30' W 002°42'0 0.0
2014-Apr-15 21:33N 51°30' W 002°42'0 0.0
2014-Apr-15 20:33N 51°30' W 002°42'0 0.0
2014-Apr-15 19:33N 51°30' W 002°42'0 0.0
2014-Apr-15 18:33N 51°30' W 002°42'0 0.2
2014-Apr-15 17:33N 51°30' W 002°42'1 0.6
2014-Apr-15 16:33N 51°31' W 002°43'1313.1
2014-Apr-15 15:33N 51°25' W 003°02'104 8.0
2014-Apr-15 02:30N 52°13' W 005°31'1413.7
2014-Apr-15 01:30N 52°27' W 005°32'5614.0
2014-Apr-14 21:30N 53°23' W 005°44'2211.5
2014-Apr-14 19:33N 53°44' W 005°54'1212.0
2014-Apr-14 18:33N 53°56' W 005°60'1010.4
2014-Apr-14 17:33N 54°04' W 006°11'6 0.6
2014-Apr-14 07:32N 53°60' W 006°03'0 0.1
2014-Apr-14 06:32N 53°60' W 006°03'0 0.0
2014-Apr-14 05:32N 53°60' W 006°03'0 0.0
2014-Apr-13 22:32N 53°60' W 006°03'0 0.0
2014-Apr-13 21:29N 53°60' W 006°03'0 0.0
2014-Apr-13 20:29N 53°60' W 006°03'0 0.0
2014-Apr-13 19:20N 53°60' W 006°03'0 0.0
2014-Apr-13 18:26N 53°60' W 006°03'0 0.0
2014-Apr-13 17:23N 53°60' W 006°03'0 0.0
2014-Apr-13 16:05N 53°60' W 006°03'0 0.0
2014-Apr-13 15:29N 53°60' W 006°03'0 0.0
2014-Apr-13 14:32N 53°60' W 006°03'0 0.0
2014-Apr-13 13:32N 53°60' W 006°03'0 0.0
2014-Apr-13 11:33N 53°60' W 006°03'1211.8
2014-Apr-13 10:32N 53°48' W 005°57'17410.9
2014-Apr-12 18:33N 51°22' W 003°20'1312.6
2014-Apr-12 17:33N 51°26' W 003°01'1211.9
2014-Apr-12 16:33N 51°30' W 002°43'1 0.7
2014-Apr-12 15:31N 51°30' W 002°42'0 0.0
2014-Apr-12 14:31N 51°30' W 002°42'0 0.0
2014-Apr-12 13:31N 51°30' W 002°42'0 0.0
2014-Apr-12 12:31N 51°30' W 002°42'0 0.0
2014-Apr-12 11:31N 51°30' W 002°42'0 0.0
2014-Apr-12 10:28N 51°30' W 002°42'0 0.0
2014-Apr-12 09:31N 51°30' W 002°42'0 0.0
2014-Apr-12 08:31N 51°30' W 002°42'0 0.0
2014-Apr-12 07:31N 51°30' W 002°42'0 0.0
2014-Apr-12 06:31N 51°30' W 002°42'0 0.0
2014-Apr-12 05:31N 51°30' W 002°42'0 0.0
2014-Apr-12 04:31N 51°30' W 002°42'0 0.1
2014-Apr-12 03:34N 51°30' W 002°42'1 0.7
2014-Apr-12 02:34N 51°31' W 002°43'1211.9
2014-Apr-12 01:33N 51°26' W 003°01'1212.1
2014-Apr-12 00:33N 51°21' W 003°19'104 9.4
2014-Apr-11 13:24N 52°25' W 005°32'5414.0
2014-Apr-11 09:32N 53°19' W 005°42'2512.3
2014-Apr-11 07:32N 53°43' W 005°54'1212.3
2014-Apr-11 06:33N 53°54' W 005°59'1211.0
2014-Apr-11 05:31N 54°04' W 006°11'3 0.3
2014-Apr-10 19:33N 54°02' W 006°07'1312.3
2014-Apr-10 18:29N 53°50' W 005°57'17810.5
2014-Apr-10 01:31N 51°23' W 003°14'1010.9
2014-Apr-10 00:33N 51°26' W 002°58'1010.4
2014-Apr-09 23:33N 51°30' W 002°43'0 0.3
2014-Apr-09 22:31N 51°30' W 002°42'0 0.0
2014-Apr-09 21:31N 51°30' W 002°42'0 0.0
2014-Apr-09 20:31N 51°30' W 002°42'0 0.0
2014-Apr-09 19:31N 51°30' W 002°42'0 0.0
2014-Apr-09 18:31N 51°30' W 002°42'0 0.0
2014-Apr-09 17:28N 51°30' W 002°42'0 0.0
2014-Apr-09 16:31N 51°30' W 002°42'0 0.0
2014-Apr-09 15:31N 51°30' W 002°42'0 0.0
2014-Apr-09 14:31N 51°30' W 002°42'0 0.0
2014-Apr-09 13:31N 51°30' W 002°42'0 0.0
2014-Apr-09 12:31N 51°30' W 002°42'0 0.0
2014-Apr-09 11:31N 51°30' W 002°42'0 0.0
2014-Apr-09 10:31N 51°30' W 002°42'0 0.0
2014-Apr-09 09:31N 51°30' W 002°42'0 0.0
2014-Apr-09 08:31N 51°30' W 002°42'0 0.0
2014-Apr-09 07:31N 51°30' W 002°42'0 0.0
2014-Apr-09 06:31N 51°30' W 002°42'0 0.0
2014-Apr-09 05:31N 51°30' W 002°42'0 0.0
2014-Apr-09 04:31N 51°30' W 002°42'0 0.0
2014-Apr-09 03:31N 51°30' W 002°42'0 0.0
2014-Apr-09 02:31N 51°30' W 002°42'0 0.0
2014-Apr-09 01:31N 51°30' W 002°42'0 0.0
2014-Apr-09 00:31N 51°30' W 002°42'0 0.4
2014-Apr-08 23:33N 51°30' W 002°43'0 0.5
2014-Apr-08 22:33N 51°31' W 002°43'1110.9
2014-Apr-08 21:31N 51°26' W 002°60'1212.3
2014-Apr-08 20:33N 51°21' W 003°17'103 7.9
2014-Apr-08 07:31N 52°21' W 005°32'4410.5
2014-Apr-08 03:19N 53°05' W 005°35'8 9.8
2014-Apr-08 02:31N 53°13' W 005°39'2310.5
2014-Apr-08 00:19N 53°35' W 005°50'2011.6
2014-Apr-07 22:33N 53°54' W 005°59'1110.5
2014-Apr-07 21:30N 54°03' W 006°10'  

Dump ship's entire track history

sailing weather and tide predictions

Vanquish — PHCU — position and weather